Time;durP1;ratioP1;P1;durP2;ratioP2;P2;SDS_P1;SDS_P2;PMS_P1;PMS_P2;Temp;Humidity;BMP_temperature;BMP_pressure;BME280_temperature;BME280_humidity;BME280_pressure;Samples;Min_cycle;Max_cycle;Signal;HPM_P1;HPM_P2
2022/06/07 00:00:44;;;;;;;2.40;2.30;;;;;;;13.10;85.13;101401.69;5079331;28;20146;-76
2022/06/07 00:03:10;;;;;;;2.92;2.30;;;;;;;13.11;85.26;101395.50;5044459;28;20035;-76
2022/06/07 00:05:35;;;;;;;2.10;2.00;;;;;;;13.12;85.46;101397.22;5060978;28;20020;-76
2022/06/07 00:08:00;;;;;;;3.13;2.92;;;;;;;13.12;85.23;101394.59;5078835;28;20036;-76
2022/06/07 00:10:26;;;;;;;2.28;2.17;;;;;;;13.12;85.64;101394.59;5078710;28;20035;-76
2022/06/07 00:12:52;;;;;;;2.53;2.42;;;;;;;13.12;85.38;101395.44;5079078;28;20028;-76
2022/06/07 00:15:18;;;;;;;2.88;2.67;;;;;;;13.13;85.18;101394.50;5077938;28;20113;-76
2022/06/07 00:17:44;;;;;;;7.75;3.70;;;;;;;13.13;85.14;101396.28;5078601;28;20090;-76
2022/06/07 00:20:11;;;;;;;4.18;3.88;;;;;;;13.15;85.50;101390.06;5084963;28;20232;-76
2022/06/07 00:22:36;;;;;;;3.75;3.45;;;;;;;13.13;85.44;101388.41;5052092;28;20059;-76
2022/06/07 00:25:05;;;;;;;3.72;3.53;;;;;;;13.14;85.33;101390.97;5092153;28;20047;-76
2022/06/07 00:27:30;;;;;;;3.90;3.60;;;;;;;13.14;85.01;101380.47;5091063;28;20038;-76
2022/06/07 00:29:57;;;;;;;4.75;4.35;;;;;;;13.14;85.16;101377.81;5079131;28;20032;-76
2022/06/07 00:32:23;;;;;;;4.50;4.20;;;;;;;13.15;84.91;101387.44;5087970;28;20063;-76
2022/06/07 00:34:48;;;;;;;3.85;3.63;;;;;;;13.15;84.91;101382.19;5065636;28;20106;-76
2022/06/07 00:37:14;;;;;;;5.63;4.80;;;;;;;13.15;85.18;101378.69;5070319;28;20336;-76
2022/06/07 00:39:40;;;;;;;4.75;4.43;;;;;;;13.17;85.21;101376.81;5070660;28;20032;-76
2022/06/07 00:42:05;;;;;;;4.47;4.18;;;;;;;13.16;85.01;101378.63;5046199;28;20029;-76
2022/06/07 00:44:44;;;;;;;5.32;4.93;;;;;;;13.17;85.28;101376.81;5072757;28;20039;-76
2022/06/07 00:47:19;;;;;;;6.00;4.82;;;;;;;13.17;85.49;101374.19;5080253;28;20036;-76
2022/06/07 00:50:08;;;;;;;5.70;5.30;;;;;;;13.17;85.25;101380.34;5091616;28;20028;-76
2022/06/07 00:52:35;;;;;;;5.05;4.55;;;;;;;13.16;85.45;101375.97;5062808;28;20073;-76
2022/06/07 00:55:02;;;;;;;5.28;4.78;;;;;;;13.16;85.58;101373.34;5086136;28;20036;-76
2022/06/07 00:57:28;;;;;;;5.10;4.70;;;;;;;13.17;85.57;101363.69;5078479;28;20036;-76
2022/06/07 00:59:54;;;;;;;5.22;4.82;;;;;;;13.17;85.73;101367.19;5082409;28;20328;-76
2022/06/07 01:04:54;;;;;;;5.47;5.07;;;;;;;13.16;85.74;101360.22;5062896;28;20118;-76
2022/06/07 01:12:49;;;;;;;5.28;4.88;;;;;;;13.16;85.86;101360.22;5087527;28;20081;-76
2022/06/07 01:15:15;;;;;;;5.55;5.15;;;;;;;13.17;85.90;101355.78;5071753;28;20028;-76
2022/06/07 01:17:40;;;;;;;4.53;4.03;;;;;;;13.16;85.79;101347.06;5086122;28;20064;-76
2022/06/07 01:20:06;;;;;;;5.38;4.60;;;;;;;13.17;85.57;101350.53;5063420;28;20059;-76
2022/06/07 01:22:33;;;;;;;5.22;4.72;;;;;;;13.16;85.82;101351.47;5087094;28;20570;-76
2022/06/07 01:24:58;;;;;;;5.38;4.97;;;;;;;13.16;86.15;101346.22;5080178;28;20324;-76
2022/06/07 01:27:24;;;;;;;5.28;4.80;;;;;;;13.15;86.31;101350.63;5080132;28;20092;-76
2022/06/07 01:29:49;;;;;;;5.28;4.85;;;;;;;13.16;86.28;101349.69;5085933;28;20390;-76
2022/06/07 01:32:15;;;;;;;5.88;5.38;;;;;;;13.15;86.05;101342.72;5079806;28;20386;-76
2022/06/07 01:34:43;;;;;;;5.70;5.20;;;;;;;13.14;86.30;101346.28;5075889;28;20077;-76
2022/06/07 01:37:10;;;;;;;6.25;5.75;;;;;;;13.13;86.50;101347.19;5087117;28;20073;-76
2022/06/07 01:42:21;;;;;;;5.78;5.38;;;;;;;13.13;86.59;101341.91;5077050;28;20129;-76
2022/06/07 01:44:47;;;;;;;8.88;6.53;;;;;;;13.13;86.63;101333.19;5077900;28;20100;-76
2022/06/07 01:47:16;;;;;;;6.20;5.70;;;;;;;13.14;86.52;101330.50;5067334;28;20104;-75
2022/06/07 01:49:42;;;;;;;5.43;5.03;;;;;;;13.15;86.47;101326.06;5087634;28;20056;-76
2022/06/07 01:52:09;;;;;;;5.30;4.90;;;;;;;13.13;86.69;101327.94;5089128;28;20042;-76
2022/06/07 01:54:34;;;;;;;5.05;4.55;;;;;;;13.12;86.86;101328.88;5092418;28;20043;-76
2022/06/07 01:57:00;;;;;;;5.38;4.97;;;;;;;13.11;86.98;101327.16;5081405;28;20051;-76
2022/06/07 01:59:26;;;;;;;5.28;4.88;;;;;;;13.10;86.89;101325.41;5068538;28;20035;-76
2022/06/07 02:01:52;;;;;;;5.07;4.78;;;;;;;13.10;86.90;101317.53;5080334;28;20042;-76
2022/06/07 02:04:21;;;;;;;4.50;4.10;;;;;;;13.09;86.92;101310.59;5076128;28;20063;-76
2022/06/07 02:06:47;;;;;;;4.38;4.00;;;;;;;13.09;86.90;101310.59;5092518;28;20027;-76
2022/06/07 02:09:13;;;;;;;4.57;4.18;;;;;;;13.08;86.56;101309.72;5078908;28;20193;-76
2022/06/07 02:11:39;;;;;;;5.90;4.90;;;;;;;13.08;86.66;101312.38;5097800;28;20357;-76
2022/06/07 02:14:05;;;;;;;5.15;4.10;;;;;;;13.09;86.16;101310.59;5087658;28;20042;-76
2022/06/07 02:16:31;;;;;;;5.05;4.00;;;;;;;13.09;86.49;101311.44;5085793;28;20324;-75
2022/06/07 02:18:57;;;;;;;5.07;3.72;;;;;;;13.10;85.96;101313.16;5097291;28;20050;-76
2022/06/07 02:21:23;;;;;;;4.38;4.07;;;;;;;13.10;85.48;101313.16;5070834;28;20051;-77
2022/06/07 02:23:49;;;;;;;3.90;3.67;;;;;;;13.11;85.42;101303.47;5057312;28;20319;-77
2022/06/07 02:26:23;;;;;;;4.30;3.90;;;;;;;13.11;85.30;101306.94;5071919;28;20060;-77
2022/06/07 02:28:55;;;;;;;3.80;3.60;;;;;;;13.11;85.09;101311.38;5077574;28;20102;-79
2022/06/07 02:31:24;;;;;;;3.33;3.05;;;;;;;13.12;85.11;101315.72;5070849;28;20036;-76
2022/06/07 02:33:49;;;;;;;3.95;3.65;;;;;;;13.11;85.13;101311.38;5053995;28;20040;-76
2022/06/07 02:36:17;;;;;;;3.15;2.88;;;;;;;13.12;84.90;101308.66;5060050;28;20040;-76
2022/06/07 02:38:44;;;;;;;4.53;3.22;;;;;;;13.10;84.48;101309.66;5041867;28;20021;-76
2022/06/07 02:41:16;;;;;;;3.42;3.22;;;;;;;13.11;85.02;101308.72;5034422;28;20056;-76
2022/06/07 02:43:42;;;;;;;3.47;3.20;;;;;;;13.11;84.78;101312.22;5051000;28;20324;-76
2022/06/07 02:46:07;;;;;;;3.53;3.22;;;;;;;13.11;84.56;101309.56;5046366;28;20043;-76
2022/06/07 02:48:33;;;;;;;3.30;3.10;;;;;;;13.13;84.82;101309.53;5036320;28;20036;-76
2022/06/07 02:50:58;;;;;;;3.70;3.40;;;;;;;13.13;84.65;101306.88;5036562;28;20036;-76
2022/06/07 02:53:23;;;;;;;3.42;3.22;;;;;;;13.13;84.81;101307.72;5052915;28;20059;-76
2022/06/07 02:55:49;;;;;;;3.50;3.30;;;;;;;13.12;84.92;101303.41;5044314;28;20028;-76
2022/06/07 02:58:14;;;;;;;3.95;3.70;;;;;;;13.13;84.95;101305.09;5047572;28;20107;-79
2022/06/07 03:00:40;;;;;;;4.38;4.00;;;;;;;13.13;84.67;101299.84;5044637;28;20340;-79
2022/06/07 03:03:05;;;;;;;4.55;4.20;;;;;;;13.12;84.84;101306.03;5068471;28;20068;-79
2022/06/07 03:05:31;;;;;;;6.22;5.18;;;;;;;13.13;84.68;101304.25;5068927;28;20037;-80
2022/06/07 03:07:56;;;;;;;8.40;6.10;;;;;;;13.12;85.14;101303.41;5057231;28;20032;-80
2022/06/07 03:10:22;;;;;;;5.40;5.00;;;;;;;13.12;84.97;101300.78;5076296;28;20024;-79
2022/06/07 03:12:47;;;;;;;6.20;5.65;;;;;;;13.11;84.89;101300.84;5077120;28;20029;-79
2022/06/07 03:15:14;;;;;;;5.80;5.30;;;;;;;13.09;85.02;101298.28;5076737;28;20455;-79
2022/06/07 03:17:40;;;;;;;10.18;5.85;;;;;;;13.10;84.96;101301.75;5067613;28;20146;-79
2022/06/07 03:20:07;;;;;;;7.00;6.30;;;;;;;13.09;85.35;101298.28;5083182;28;20344;-79
2022/06/07 03:22:34;;;;;;;7.05;6.45;;;;;;;13.05;85.33;101300.19;5094832;28;20036;-79
2022/06/07 03:25:05;;;;;;;7.03;6.32;;;;;;;13.04;85.28;101303.75;5046598;28;20078;-79
2022/06/07 03:27:31;;;;;;;6.25;5.75;;;;;;;13.04;85.25;101298.50;5087847;28;20036;-79
2022/06/07 03:29:56;;;;;;;7.38;5.82;;;;;;;13.04;85.28;101306.38;5062252;28;20263;-80
2022/06/07 03:32:21;;;;;;;6.80;6.25;;;;;;;13.04;85.25;101311.66;5075005;28;20043;-80
2022/06/07 03:34:47;;;;;;;7.13;6.55;;;;;;;13.03;85.13;101307.28;5084850;28;20037;-79
2022/06/07 03:37:12;;;;;;;6.95;6.35;;;;;;;13.04;85.18;101308.13;5086666;28;20059;-79
2022/06/07 03:39:37;;;;;;;7.25;6.65;;;;;;;13.03;85.06;101315.19;5071861;28;20037;-80
2022/06/07 03:42:03;;;;;;;7.90;7.10;;;;;;;13.02;85.20;101310.84;5025199;28;20037;-80
2022/06/07 03:44:29;;;;;;;7.10;6.57;;;;;;;13.03;84.92;101314.34;5064829;28;20032;-79
2022/06/07 03:46:55;;;;;;;9.68;7.13;;;;;;;13.01;85.29;101317.03;5074486;28;20028;-80
2022/06/07 03:49:20;;;;;;;7.35;6.63;;;;;;;13.02;85.28;101317.88;5051955;28;20044;-80
2022/06/07 03:51:47;;;;;;;7.43;6.38;;;;;;;13.00;85.13;101312.69;5078837;28;20137;-80
2022/06/07 03:54:13;;;;;;;7.38;6.43;;;;;;;13.01;85.43;101314.41;5044055;28;20044;-80
2022/06/07 03:56:38;;;;;;;6.90;6.30;;;;;;;13.02;85.33;101312.63;5078598;28;20340;-80
2022/06/07 03:59:04;;;;;;;7.38;6.72;;;;;;;13.01;85.10;101321.44;5064036;28;20040;-79
2022/06/07 04:01:29;;;;;;;7.32;6.63;;;;;;;13.00;84.95;101319.72;5073735;28;20062;-79
2022/06/07 04:04:01;;;;;;;7.13;6.53;;;;;;;13.00;84.80;101320.56;5076094;28;20336;-79
2022/06/07 04:06:33;;;;;;;7.07;6.38;;;;;;;13.00;85.51;101320.56;5085845;28;20071;-79
2022/06/07 04:08:58;;;;;;;11.75;7.88;;;;;;;12.99;85.33;101315.41;5068183;28;20028;-80
2022/06/07 04:11:26;;;;;;;7.18;6.47;;;;;;;13.00;85.13;101323.19;5072840;28;20383;-79
2022/06/07 04:13:55;;;;;;;7.17;6.57;;;;;;;13.00;85.07;101322.34;5083656;28;20113;-79
2022/06/07 04:16:22;;;;;;;7.40;6.75;;;;;;;13.00;85.37;101331.06;5097615;28;20213;-79
2022/06/07 04:18:49;;;;;;;7.00;6.40;;;;;;;13.00;85.19;101325.81;5071693;28;20343;-79
2022/06/07 04:21:15;;;;;;;7.32;6.65;;;;;;;13.00;85.26;101322.34;5087363;28;20044;-79
2022/06/07 04:23:42;;;;;;;6.53;5.93;;;;;;;13.00;85.52;101328.44;5094217;28;20024;-79
2022/06/07 04:26:13;;;;;;;7.13;6.50;;;;;;;13.00;85.29;101328.44;5072996;28;20456;-79
2022/06/07 04:28:39;;;;;;;6.20;5.60;;;;;;;13.01;85.05;101335.44;5059161;28;20335;-79
2022/06/07 04:31:13;;;;;;;7.32;6.63;;;;;;;13.00;85.30;101328.44;5077632;28;20032;-79
2022/06/07 04:33:40;;;;;;;8.85;7.60;;;;;;;13.00;85.47;101340.75;5078557;28;20035;-79
2022/06/07 04:36:13;;;;;;;8.20;7.03;;;;;;;12.99;85.40;101334.66;5079156;28;20115;-80
2022/06/07 04:38:42;;;;;;;7.57;6.63;;;;;;;13.00;85.20;101338.13;5085165;28;20150;-80
2022/06/07 04:41:09;;;;;;;7.18;6.57;;;;;;;12.99;85.30;101337.28;5088669;28;20055;-80
2022/06/07 04:43:34;;;;;;;11.27;6.90;;;;;;;13.00;85.53;101335.50;5066390;28;20039;-80
2022/06/07 04:46:10;;;;;;;9.13;6.20;;;;;;;12.99;85.66;101337.28;5077006;28;20255;-80
2022/06/07 04:48:38;;;;;;;7.85;7.05;;;;;;;13.00;85.47;101344.22;5079389;28;20031;-80
2022/06/07 04:51:10;;;;;;;6.93;6.32;;;;;;;13.00;85.40;101338.13;5071025;28;20040;-80
2022/06/07 04:53:36;;;;;;;7.45;6.75;;;;;;;12.99;85.32;101336.44;5089593;28;20032;-80
2022/06/07 04:56:10;;;;;;;9.88;6.90;;;;;;;13.00;85.20;101346.00;5066598;28;20387;-79
2022/06/07 04:58:36;;;;;;;6.80;6.20;;;;;;;13.00;85.70;101344.22;5092569;28;20227;-79
2022/06/07 05:01:07;;;;;;;6.40;5.90;;;;;;;13.01;85.66;101347.72;5075009;28;20028;-79
2022/06/07 05:03:32;;;;;;;7.53;6.75;;;;;;;13.02;85.44;101349.41;5091122;28;20027;-80
2022/06/07 05:05:57;;;;;;;7.15;6.45;;;;;;;13.00;85.14;101346.84;5075325;28;20404;-80
2022/06/07 05:08:23;;;;;;;7.70;6.43;;;;;;;13.01;84.80;101342.47;5057258;28;20106;-79
2022/06/07 05:10:48;;;;;;;6.32;5.78;;;;;;;13.02;85.17;101337.16;5033273;28;20036;-79
2022/06/07 05:13:13;;;;;;;6.93;5.95;;;;;;;13.03;84.85;101348.50;5060436;28;20112;-79
2022/06/07 05:15:39;;;;;;;6.45;5.82;;;;;;;13.03;84.77;101351.16;5079565;28;20040;-79
2022/06/07 05:18:05;;;;;;;6.35;5.82;;;;;;;13.02;84.72;101358.19;5060510;28;20036;-80
2022/06/07 05:20:30;;;;;;;5.50;5.03;;;;;;;13.03;84.85;101356.41;5069112;28;20052;-80
2022/06/07 05:22:55;;;;;;;6.32;5.72;;;;;;;13.04;84.92;101355.47;5051905;28;20048;-79
2022/06/07 05:25:21;;;;;;;5.93;5.53;;;;;;;13.05;84.90;101362.44;5085636;28;20035;-80
2022/06/07 05:27:49;;;;;;;6.50;5.82;;;;;;;13.05;84.82;101359.81;5070283;28;20258;-80
2022/06/07 05:30:16;;;;;;;7.65;6.65;;;;;;;13.07;85.19;101363.22;5078746;28;20356;-80
2022/06/07 05:32:41;;;;;;;5.82;5.22;;;;;;;13.07;84.94;101357.97;5061407;28;20044;-80
2022/06/07 05:35:08;;;;;;;10.68;6.57;;;;;;;13.05;85.01;101354.56;5061023;28;20434;-80
2022/06/07 05:37:34;;;;;;;6.47;5.88;;;;;;;13.05;84.79;101357.19;5061265;28;20081;-80
2022/06/07 05:40:03;;;;;;;6.15;5.32;;;;;;;13.06;84.73;101358.88;5076763;28;20332;-80
2022/06/07 05:42:28;;;;;;;7.32;5.57;;;;;;;13.05;85.04;101357.19;5072889;28;20251;-80
2022/06/07 05:44:54;;;;;;;5.78;5.13;;;;;;;13.06;84.93;101354.50;5058692;28;20044;-79
2022/06/07 05:47:19;;;;;;;5.43;4.93;;;;;;;13.06;84.63;101357.13;5078325;28;20333;-79
2022/06/07 05:49:44;;;;;;;5.85;5.35;;;;;;;13.09;84.95;101356.13;5061004;28;20039;-79
2022/06/07 05:52:11;;;;;;;7.00;5.50;;;;;;;13.09;85.04;101357.91;5060000;28;20040;-79
2022/06/07 05:54:38;;;;;;;8.05;5.85;;;;;;;13.08;85.05;101343.91;5078637;28;20044;-79
2022/06/07 05:57:04;;;;;;;7.82;5.82;;;;;;;13.09;85.14;101364.00;5078254;28;20060;-79
2022/06/07 05:59:30;;;;;;;5.82;5.30;;;;;;;13.08;85.03;101354.44;5043763;28;20043;-79
2022/06/07 06:01:55;;;;;;;11.05;6.65;;;;;;;13.09;85.06;101356.13;5084719;28;20040;-79
2022/06/07 06:04:21;;;;;;;11.38;7.50;;;;;;;13.11;84.97;101371.84;5080641;28;20101;-79
2022/06/07 06:06:46;;;;;;;8.38;7.13;;;;;;;13.11;85.14;101364.81;5081132;28;20275;-79
2022/06/07 06:11:55;;;;;;;7.75;7.00;;;;;;;13.13;85.00;101360.31;5084098;28;20038;-79
2022/06/07 06:14:22;;;;;;;11.63;8.05;;;;;;;13.13;85.34;101360.31;5098408;28;20331;-79
2022/06/07 06:16:48;;;;;;;7.88;7.07;;;;;;;13.16;85.22;101360.22;5099093;28;20090;-79
2022/06/07 06:19:13;;;;;;;8.02;6.85;;;;;;;13.16;85.50;101360.22;5098920;28;20070;-79
2022/06/07 06:21:42;;;;;;;8.35;7.50;;;;;;;13.17;85.20;101361.94;5098503;28;20059;-79
2022/06/07 06:24:09;;;;;;;7.50;6.68;;;;;;;13.18;85.59;101360.16;5080324;28;20264;-79
2022/06/07 06:26:36;;;;;;;8.65;6.63;;;;;;;13.17;85.72;101361.94;5080480;28;20097;-80
2022/06/07 06:29:01;;;;;;;9.05;6.57;;;;;;;13.19;85.39;101361.88;5098436;28;20043;-80
2022/06/07 06:31:27;;;;;;;6.32;5.75;;;;;;;13.19;85.35;101372.38;5080737;28;20032;-80
2022/06/07 06:33:54;;;;;;;11.52;7.28;;;;;;;13.21;85.32;101378.44;5055618;28;20113;-80
2022/06/07 06:36:23;;;;;;;8.00;7.20;;;;;;;13.20;85.54;101374.91;5082031;28;20131;-80
2022/06/07 06:38:48;;;;;;;9.00;7.00;;;;;;;13.22;85.22;101375.75;5078603;28;20300;-80
2022/06/07 06:41:18;;;;;;;8.68;7.10;;;;;;;13.23;85.40;101366.06;5065974;28;20050;-80
2022/06/07 06:43:44;;;;;;;8.57;6.90;;;;;;;13.24;85.36;101379.16;5080267;28;20528;-80
2022/06/07 06:46:16;;;;;;;11.32;6.20;;;;;;;13.26;85.28;101368.53;5097511;28;20034;-80
2022/06/07 06:48:43;;;;;;;6.40;5.88;;;;;;;13.27;85.13;101375.53;5083707;28;20375;-80
2022/06/07 06:51:13;;;;;;;6.55;5.93;;;;;;;13.28;84.74;101379.88;5042291;28;20082;-80
2022/06/07 06:53:41;;;;;;;6.75;5.85;;;;;;;13.28;84.85;101373.75;5065039;28;20079;-80
2022/06/07 06:56:08;;;;;;;7.60;6.10;;;;;;;13.28;84.15;101373.75;5064499;28;20020;-80
2022/06/07 06:58:34;;;;;;;6.43;5.82;;;;;;;13.29;83.68;101372.84;5047732;28;20040;-80
2022/06/07 07:01:08;;;;;;;7.40;6.57;;;;;;;13.31;84.25;101387.66;5088573;28;20039;-80
2022/06/07 07:03:35;;;;;;;6.30;5.57;;;;;;;13.32;83.95;101381.47;5090201;28;20084;-80
2022/06/07 07:06:03;;;;;;;6.13;5.57;;;;;;;13.33;83.31;101382.31;5075545;28;20276;-80
2022/06/07 07:08:29;;;;;;;6.32;5.80;;;;;;;13.36;83.59;101384.84;5056696;28;20111;-80
2022/06/07 07:11:14;;;;;;;9.32;6.13;;;;;;;13.37;83.66;101391.78;5063972;28;20039;-80
2022/06/07 07:13:40;;;;;;;7.82;6.35;;;;;;;13.35;83.77;101381.34;5060763;28;20060;-80
2022/06/07 07:16:07;;;;;;;7.90;6.93;;;;;;;13.39;83.77;101382.06;5066169;28;20120;-80
2022/06/07 07:18:33;;;;;;;7.55;6.40;;;;;;;13.39;83.77;101377.66;5073973;28;20064;-80
2022/06/07 07:21:01;;;;;;;7.82;6.95;;;;;;;13.42;83.95;101381.91;5062997;28;20348;-80
2022/06/07 07:23:26;;;;;;;8.88;7.75;;;;;;;13.41;83.72;101381.06;5094983;28;20059;-80
2022/06/07 07:25:52;;;;;;;8.30;7.13;;;;;;;13.43;83.76;101376.59;5046629;28;20040;-80
2022/06/07 07:28:17;;;;;;;7.85;7.05;;;;;;;13.46;83.35;101393.16;5063272;28;20036;-80
2022/06/07 07:30:43;;;;;;;12.68;7.22;;;;;;;13.47;83.41;101385.22;5065018;28;20021;-80
2022/06/07 07:33:08;;;;;;;6.75;6.05;;;;;;;13.50;83.62;101392.97;5081362;28;20040;-80
2022/06/07 07:35:34;;;;;;;7.75;6.95;;;;;;;13.50;83.93;101390.34;5062970;28;20074;-80
2022/06/07 07:38:01;;;;;;;8.30;6.30;;;;;;;13.52;83.84;101395.53;5082604;28;20373;-80
2022/06/07 07:40:26;;;;;;;7.43;6.18;;;;;;;13.51;83.62;101402.56;5092693;28;20214;-80
2022/06/07 07:42:52;;;;;;;7.10;6.40;;;;;;;13.52;83.44;101393.75;5076276;28;20036;-80
2022/06/07 07:45:17;;;;;;;6.97;6.07;;;;;;;13.53;83.53;101395.44;5046036;28;20354;-79
2022/06/07 07:47:43;;;;;;;7.63;6.93;;;;;;;13.56;83.39;101399.75;5059941;28;20040;-80
2022/06/07 07:50:11;;;;;;;10.38;6.13;;;;;;;13.58;83.60;101390.84;5090090;28;20335;-80
2022/06/07 07:52:37;;;;;;;7.57;6.47;;;;;;;13.60;83.73;101388.16;5034713;28;20037;-80
2022/06/07 07:55:04;;;;;;;8.63;6.55;;;;;;;13.61;83.97;101388.09;5089723;28;20103;-80
2022/06/07 07:57:31;;;;;;;7.10;6.40;;;;;;;13.62;83.66;101400.34;5080588;28;20353;-79
2022/06/07 07:59:57;;;;;;;7.30;6.50;;;;;;;13.63;83.50;101391.50;5084028;28;20029;-79
2022/06/07 08:02:22;;;;;;;9.68;7.13;;;;;;;13.63;82.93;101390.66;5066791;28;20097;-79
2022/06/07 08:04:47;;;;;;;8.98;6.15;;;;;;;13.65;83.52;101393.22;5092759;28;20048;-80
2022/06/07 08:07:13;;;;;;;8.13;6.70;;;;;;;13.66;82.99;101402.81;5073028;28;20341;-80
2022/06/07 08:09:39;;;;;;;7.63;6.72;;;;;;;13.67;83.24;101399.25;5072240;28;20052;-79
2022/06/07 08:12:06;;;;;;;9.52;6.72;;;;;;;13.67;83.00;101404.53;5091041;28;20068;-79
2022/06/07 08:14:33;;;;;;;7.70;7.10;;;;;;;13.69;83.60;101402.69;5088300;28;20032;-79
2022/06/07 08:16:59;;;;;;;8.45;6.82;;;;;;;13.69;83.22;101400.88;5074382;28;20363;-79
2022/06/07 08:19:26;;;;;;;7.80;6.90;;;;;;;13.69;83.39;101398.25;5093810;28;20086;-79
2022/06/07 08:21:51;;;;;;;8.18;6.30;;;;;;;13.73;83.61;101398.97;5068077;28;20399;-79
2022/06/07 08:24:17;;;;;;;9.82;7.20;;;;;;;13.74;83.37;101406.81;5065393;28;20028;-80
2022/06/07 08:26:46;;;;;;;11.55;7.68;;;;;;;13.76;83.77;101399.69;5059298;28;20028;-80
2022/06/07 08:29:12;;;;;;;7.22;6.38;;;;;;;13.77;84.16;101400.53;5084962;28;20035;-79
2022/06/07 08:31:38;;;;;;;9.13;7.53;;;;;;;13.77;82.99;101398.78;5071603;28;20028;-80
2022/06/07 08:39:33;;;;;;;10.40;7.80;;;;;;;13.80;83.00;101396.00;5075236;28;20424;-79
2022/06/07 08:42:13;;;;;;;7.53;6.82;;;;;;;13.82;83.30;101396.81;5072717;28;20056;-80
2022/06/07 08:44:54;;;;;;;9.73;7.60;;;;;;;13.86;83.38;101396.66;5084762;28;20032;-79
2022/06/07 08:47:48;;;;;;;7.53;6.85;;;;;;;13.87;83.45;101398.38;5048488;28;20040;-79
2022/06/07 08:50:17;;;;;;;8.10;7.40;;;;;;;13.86;83.07;101392.25;5074986;28;20055;-79
2022/06/07 08:52:44;;;;;;;7.72;7.03;;;;;;;13.90;82.92;101385.03;5080989;28;20032;-79
2022/06/07 08:55:20;;;;;;;9.20;6.72;;;;;;;13.90;82.88;101391.19;5079241;28;20063;-79
2022/06/07 08:57:57;;;;;;;12.98;7.13;;;;;;;13.92;82.86;101391.97;5082915;28;20110;-79
2022/06/07 09:00:35;;;;;;;7.45;6.55;;;;;;;13.94;83.25;101394.53;5081402;28;20341;-79
2022/06/07 09:03:09;;;;;;;6.83;6.17;;;;;;;13.96;83.05;101390.88;5066867;28;20312;-79
2022/06/07 09:05:35;;;;;;;7.10;6.43;;;;;;;13.98;82.80;101391.66;5068998;28;20037;-79
2022/06/07 09:08:00;;;;;;;7.05;6.35;;;;;;;14.00;83.20;101386.34;5080103;28;20398;-79
2022/06/07 09:13:24;;;;;;;9.75;7.55;;;;;;;14.07;84.17;101384.28;5088424;28;20038;-79
2022/06/07 09:15:54;;;;;;;8.48;7.68;;;;;;;14.11;84.11;101389.31;5070689;28;20024;-79
2022/06/07 09:18:25;;;;;;;9.63;7.53;;;;;;;14.14;84.05;101380.44;5089904;28;20040;-80
2022/06/07 09:20:54;;;;;;;7.63;6.63;;;;;;;14.17;83.68;101396.06;5083147;28;20039;-78
2022/06/07 09:23:32;;;;;;;8.18;7.32;;;;;;;14.20;83.36;101390.66;5088380;28;20040;-78
2022/06/07 09:26:12;;;;;;;8.68;7.90;;;;;;;14.21;83.43;101393.25;5067791;28;20028;-78
2022/06/07 09:28:38;;;;;;;9.18;8.15;;;;;;;14.23;83.18;101393.16;5082181;28;20035;-78
2022/06/07 09:31:10;;;;;;;8.60;7.80;;;;;;;14.24;83.37;101392.22;5071537;28;20024;-79
2022/06/07 09:33:48;;;;;;;8.52;7.80;;;;;;;14.27;83.35;101391.25;5065524;28;20308;-79
2022/06/07 09:36:27;;;;;;;7.77;7.07;;;;;;;14.29;83.37;101389.38;5087219;28;20115;-80
2022/06/07 09:39:00;;;;;;;14.27;9.30;;;;;;;14.29;82.98;101392.03;5073075;28;20478;-80
2022/06/07 09:41:39;;;;;;;11.02;9.82;;;;;;;14.29;83.04;101398.13;5086311;28;20222;-80
2022/06/07 09:44:22;;;;;;;10.48;9.32;;;;;;;14.33;83.37;101396.22;5069019;28;20021;-80
2022/06/07 09:46:57;;;;;;;10.82;8.70;;;;;;;14.33;83.09;101402.31;5083704;28;20029;-80
2022/06/07 09:49:36;;;;;;;8.98;7.40;;;;;;;14.34;83.39;101403.22;5066297;28;20020;-80
2022/06/07 09:52:28;;;;;;;9.95;8.10;;;;;;;14.33;83.19;101399.69;5087238;28;20042;-80
2022/06/07 09:55:22;;;;;;;10.52;8.98;;;;;;;14.33;83.02;101402.31;5086610;28;20032;-80
2022/06/07 09:58:04;;;;;;;10.63;9.48;;;;;;;14.34;83.53;101401.41;5079115;28;20080;-80
2022/06/07 10:00:40;;;;;;;9.55;8.05;;;;;;;14.34;83.25;101400.56;5085112;28;20032;-80
2022/06/07 10:03:37;;;;;;;10.32;8.82;;;;;;;14.36;82.80;101399.56;5070188;28;20142;-80
2022/06/07 10:06:17;;;;;;;8.60;7.90;;;;;;;14.39;83.41;101398.56;5062412;28;20095;-80
2022/06/07 10:09:12;;;;;;;12.00;8.40;;;;;;;14.40;83.74;101401.09;5087368;28;20366;-80
2022/06/07 10:11:53;;;;;;;10.02;7.60;;;;;;;14.42;83.61;101400.19;5059989;28;20012;-80
2022/06/07 10:14:45;;;;;;;8.48;7.55;;;;;;;14.44;83.33;101401.81;5092060;28;20024;-80
2022/06/07 10:17:55;;;;;;;9.98;7.85;;;;;;;14.49;83.61;101391.91;5080140;28;20039;-80
2022/06/07 10:20:26;;;;;;;9.45;7.80;;;;;;;14.51;83.49;101392.69;5066130;28;20059;-80
2022/06/07 10:23:09;;;;;;;8.48;7.70;;;;;;;14.51;83.57;101387.41;5068234;28;20028;-80
2022/06/07 10:25:43;;;;;;;11.30;8.02;;;;;;;14.52;83.37;101398.84;5085899;28;20044;-80
2022/06/07 10:28:21;;;;;;;9.50;8.60;;;;;;;14.54;83.52;101392.56;5060425;28;20055;-80
2022/06/07 10:31:02;;;;;;;10.77;9.68;;;;;;;14.56;83.45;101390.69;5074339;28;20032;-80
2022/06/07 10:33:46;;;;;;;9.40;8.40;;;;;;;14.59;83.53;101393.22;5070172;28;20312;-80
2022/06/07 10:36:26;;;;;;;9.60;8.65;;;;;;;14.62;83.58;101396.63;5082368;28;20085;-80
2022/06/07 10:39:29;;;;;;;10.55;8.43;;;;;;;14.63;82.83;101393.94;5080954;28;20228;-80
2022/06/07 10:42:16;;;;;;;9.70;8.75;;;;;;;14.62;82.24;101386.09;5059719;28;20063;-80
2022/06/07 10:44:48;;;;;;;10.70;9.07;;;;;;;14.63;82.46;101390.44;5082811;28;20324;-80
2022/06/07 10:47:36;;;;;;;11.00;9.57;;;;;;;14.65;82.56;101392.06;5076883;28;20043;-80
2022/06/07 10:50:13;;;;;;;10.25;9.35;;;;;;;14.66;82.96;101399.06;5059247;28;20031;-80
2022/06/07 10:52:45;;;;;;;9.23;8.32;;;;;;;14.66;82.83;101403.44;5063727;28;20350;-80
2022/06/07 10:55:16;;;;;;;12.23;9.90;;;;;;;14.65;82.64;101396.50;5082396;28;20043;-80
2022/06/07 10:57:48;;;;;;;12.50;10.57;;;;;;;14.66;82.30;101406.97;5059484;28;20101;-80
2022/06/07 11:00:42;;;;;;;11.50;10.07;;;;;;;14.66;82.00;101404.34;5077067;28;20068;-80
2022/06/07 11:03:20;;;;;;;11.77;10.43;;;;;;;14.68;82.57;101396.31;5059717;28;20090;-80
2022/06/07 11:11:27;;;;;;;11.27;9.45;;;;;;;14.73;82.69;101399.59;5092428;28;20374;-80
2022/06/07 11:14:19;;;;;;;11.20;10.00;;;;;;;14.73;82.28;101389.88;5083207;28;20052;-80
2022/06/07 11:17:11;;;;;;;8.48;7.68;;;;;;;14.77;82.63;101391.47;5059487;28;20052;-80
2022/06/07 11:19:36;;;;;;;10.07;8.75;;;;;;;14.84;82.65;101396.44;5082456;28;20267;-80
2022/06/07 11:22:05;;;;;;;10.40;9.40;;;;;;;14.86;82.05;101398.06;5042452;28;20057;-80
2022/06/07 11:24:32;;;;;;;11.55;9.85;;;;;;;14.89;82.09;101392.63;5077080;28;20039;-80
2022/06/07 11:27:07;;;;;;;10.40;8.85;;;;;;;14.93;81.20;101403.88;5059810;28;20024;-80
2022/06/07 11:29:33;;;;;;;10.65;9.15;;;;;;;14.93;81.96;101403.88;5077097;28;20029;-80
2022/06/07 11:32:03;;;;;;;14.25;9.43;;;;;;;14.93;82.35;101393.31;5077645;28;20051;-80
2022/06/07 11:34:30;;;;;;;15.75;10.25;;;;;;;14.95;82.50;101397.63;5040343;28;20033;-80
2022/06/07 11:37:07;;;;;;;14.70;9.88;;;;;;;15.01;82.02;101398.22;5060439;28;20031;-80
2022/06/07 11:39:38;;;;;;;10.55;8.77;;;;;;;15.05;82.29;101397.16;5085832;28;20035;-80
2022/06/07 11:42:06;;;;;;;10.55;8.75;;;;;;;15.09;82.55;101402.19;5083994;28;20338;-80
2022/06/07 11:44:39;;;;;;;9.60;8.53;;;;;;;15.12;82.11;101402.03;5083103;28;20036;-80
2022/06/07 11:47:07;;;;;;;12.27;10.60;;;;;;;15.16;82.22;101405.38;5090237;28;20481;-80
2022/06/07 11:49:57;;;;;;;13.38;11.07;;;;;;;15.20;82.29;101395.50;5091158;28;20100;-80
2022/06/07 11:52:26;;;;;;;11.98;9.48;;;;;;;15.22;82.05;101397.13;5091448;28;20228;-80
2022/06/07 11:55:08;;;;;;;12.80;10.15;;;;;;;15.25;81.85;101396.13;5070016;28;20028;-80
2022/06/07 11:57:41;;;;;;;15.20;11.13;;;;;;;15.26;81.42;101396.06;5055562;28;20067;-80
2022/06/07 12:00:19;;;;;;;11.70;10.23;;;;;;;15.30;81.81;101394.97;5095246;28;20034;-80
2022/06/07 12:02:56;;;;;;;13.43;11.13;;;;;;;15.32;82.11;101392.25;5087136;28;20067;-80